RAAF Base Amberley
YAMB : now visible

Airfield :











YOU CAN JOIN US ON...

 
LOGIN :

Register | Disclaimer

   EN    FR    IT 

 









Legend :    VFR   Marginal VFR   IFR   Intensive IFR   Very Intensive IFR
Visi :
Ceiling :
>= 8 km
>= 3000ft
5 to 8 km
1000 to 3000 ft
1500m to 5 km
500 to 1000 ft
800 to 1500m
200 to 500 ft
< 800m
< 200 ft
Symbols :   Thunderstorms  Fog  Heavy snow  Heavy precipitations  Wind > 20 kt






- Airport Elevation : 91 ft


YAMB - RAAF Base Amberley

CURRENT METAR :
  • 280000Z 26004KT 9999 -SHRA SCT015 SCT030 BKN057 26/23 Q1014 INTER 0000/0200 4000 SHRA BKN010

EXPIRED METARs :
  • 272330Z 28005KT 260V320 9999 VCSH SCT017 SCT030 BKN057 24/22 Q1015 INTER 2330/0200 4000 SHRA BKN010
  • 272300Z 10005KT 6000 -SHRA SCT013 SCT020 BKN050 24/21 Q1014 FM2300 10005KT 9999 SCT020 BKN040 INTER 2300/0200 4000 SHRA BKN010
  • 272230Z 11005KT 9999 -SHRA SCT015 BKN038 26/22 Q1014 INTER 2230/0130 4000 SHRA BKN010
  • 272200Z 17002KT 9999 -SHRA SCT014 BKN029 25/22 Q1014 FM2200 VRB05KT 9999 -SHRA SCT015 BKN035 INTER 2200/0100 4000 SHRA BKN010
  • 272130Z 00000KT 9999 BKN014 BKN039 25/22 Q1014 RF00.0/000.0 SHRA TO EAST

TAF TAF YAMB
Valid from the 28 at 00:00 until the 28 at 18:00 UTC


272330Z 2800/2818 08008KT 9999 -SHRA SCT025 BKN040
FM280400 06013KT 9999 -SHRA SCT045
FM281000 08007KT 9999 SCT030 INTER 2800/2802 4000 SHRA BKN010



MET'MAP, your aeronautical weather chart ! - Copyright ORBIFLY December 2007 - Disclaimer

ORBIFLY MET'MAP TEAM :

Programming & Development : Alexandra Zaïnal
Concept & original design : Baudouin d'Aumeries
Assistance for programming : Marc-Olivier Méhu
Technical & hardware support : Manuel Goepfert

Contact : metmap@orbifly.com




SOURCES & CREDITS :

   NOAA       Earth
Advisory